createdAt,value
2019-02-25T00:00:14.594Z,0.00
2019-02-25T00:01:14.586Z,0.00
2019-02-25T00:02:14.581Z,0.00
2019-02-25T00:03:14.563Z,0.00
2019-02-25T00:04:14.553Z,0.00
2019-02-25T00:05:14.595Z,0.00
2019-02-25T00:06:14.532Z,0.00
2019-02-25T00:07:14.527Z,0.00
2019-02-25T00:08:14.517Z,0.00
2019-02-25T00:09:14.501Z,0.00
2019-02-25T00:10:14.494Z,0.00
2019-02-25T00:11:14.489Z,0.00
2019-02-25T00:12:14.478Z,0.00
2019-02-25T00:13:14.478Z,0.00
2019-02-25T00:14:14.462Z,0.00
2019-02-25T00:15:14.450Z,0.00
2019-02-25T00:16:14.439Z,0.00
2019-02-25T00:17:14.433Z,0.00
2019-02-25T00:18:14.423Z,0.00
2019-02-25T00:19:14.409Z,0.00
2019-02-25T00:20:14.401Z,0.00
2019-02-25T00:21:14.388Z,0.00
2019-02-25T00:22:14.377Z,0.00
2019-02-25T00:23:14.374Z,0.00
2019-02-25T00:24:14.363Z,0.00
2019-02-25T00:25:14.353Z,0.00
2019-02-25T00:26:14.339Z,0.00
2019-02-25T00:27:14.337Z,0.00
2019-02-25T00:28:14.325Z,0.00
2019-02-25T00:29:14.317Z,0.00
2019-02-25T00:30:14.308Z,0.00
2019-02-25T00:31:14.294Z,0.00
2019-02-25T00:32:14.286Z,0.00
2019-02-25T00:33:14.275Z,0.00
2019-02-25T00:34:14.266Z,0.00
2019-02-25T00:35:14.260Z,0.00
2019-02-25T00:36:14.250Z,0.00
2019-02-25T00:37:14.238Z,0.00
2019-02-25T00:38:14.229Z,0.00
2019-02-25T00:39:14.213Z,0.00
2019-02-25T00:40:14.203Z,0.00
2019-02-25T00:41:14.199Z,0.00
2019-02-25T00:42:14.191Z,0.00
2019-02-25T00:43:14.176Z,0.00
2019-02-25T00:44:14.165Z,0.00
2019-02-25T00:45:14.159Z,0.00
2019-02-25T00:46:14.149Z,0.00
2019-02-25T00:47:14.145Z,0.00
2019-02-25T00:48:14.134Z,0.00
2019-02-25T00:49:14.125Z,0.00
2019-02-25T00:50:14.116Z,0.00
2019-02-25T00:51:14.103Z,0.00
2019-02-25T00:52:14.092Z,0.00
2019-02-25T00:53:14.079Z,0.00
2019-02-25T00:54:14.070Z,0.00
2019-02-25T00:55:14.066Z,0.00
2019-02-25T00:56:14.057Z,0.00
2019-02-25T00:57:14.042Z,0.00
2019-02-25T00:58:14.031Z,0.00
2019-02-25T00:59:14.028Z,0.00
2019-02-25T01:00:14.016Z,0.00
2019-02-25T01:01:14.008Z,0.00
2019-02-25T01:02:14.000Z,0.00
2019-02-25T01:03:13.987Z,0.00
2019-02-25T01:04:13.975Z,0.00
2019-02-25T01:05:13.967Z,0.00
2019-02-25T01:06:13.957Z,0.00
2019-02-25T01:07:13.953Z,0.00
2019-02-25T01:08:13.940Z,0.00
2019-02-25T01:09:13.928Z,0.00
2019-02-25T01:10:13.921Z,0.00
2019-02-25T01:11:13.905Z,0.00
2019-02-25T01:12:13.895Z,0.00
2019-02-25T01:13:13.892Z,0.00
2019-02-25T01:14:13.882Z,0.00
2019-02-25T01:15:13.870Z,0.00
2019-02-25T01:16:13.857Z,0.00
2019-02-25T01:17:13.850Z,0.00
2019-02-25T01:18:13.841Z,0.00
2019-02-25T01:19:13.835Z,0.00
2019-02-25T01:20:13.825Z,0.00
2019-02-25T01:21:13.814Z,0.00
2019-02-25T01:22:13.804Z,0.00
2019-02-25T01:23:13.790Z,0.00
2019-02-25T01:24:13.779Z,0.00
2019-02-25T01:25:13.772Z,0.00
2019-02-25T01:26:13.764Z,0.00
2019-02-25T01:27:13.758Z,0.00
2019-02-25T01:28:13.748Z,0.00
2019-02-25T01:29:13.734Z,0.00
2019-02-25T01:30:13.725Z,0.00
2019-02-25T01:31:13.722Z,0.00
2019-02-25T01:32:13.709Z,0.00
2019-02-25T01:33:13.697Z,0.00
2019-02-25T01:34:13.689Z,0.00
2019-02-25T01:35:13.674Z,0.00
2019-02-25T01:36:13.668Z,0.00
2019-02-25T01:37:13.653Z,0.00
2019-02-25T01:38:15.629Z,0.00
2019-02-25T01:39:13.641Z,0.00
2019-02-25T01:40:13.634Z,0.00
2019-02-25T01:41:13.623Z,0.00
2019-02-25T01:42:13.611Z,0.00
2019-02-25T01:43:13.598Z,0.00
2019-02-25T01:44:13.587Z,0.00
2019-02-25T01:45:13.582Z,0.00
2019-02-25T01:46:13.572Z,0.00
2019-02-25T01:47:13.558Z,0.00
2019-02-25T01:48:13.549Z,0.00
2019-02-25T01:49:13.536Z,0.00
2019-02-25T01:50:13.525Z,0.00
2019-02-25T01:51:13.521Z,0.00
2019-02-25T01:52:13.510Z,0.00
2019-02-25T01:53:13.499Z,0.00
2019-02-25T01:54:13.490Z,0.00
2019-02-25T01:55:13.474Z,0.00
2019-02-25T01:56:13.465Z,0.00
2019-02-25T01:57:13.459Z,0.00
2019-02-25T01:58:13.448Z,0.00
2019-02-25T01:59:13.443Z,0.00
2019-02-25T02:00:13.432Z,0.00
2019-02-25T02:01:13.417Z,0.00
2019-02-25T02:02:13.407Z,0.00
2019-02-25T02:03:13.400Z,0.00
2019-02-25T02:04:13.391Z,0.00
2019-02-25T02:05:13.379Z,0.00
2019-02-25T02:06:13.369Z,0.00
2019-02-25T02:07:13.361Z,0.00
2019-02-25T02:08:13.343Z,0.00
2019-02-25T02:09:13.333Z,0.00
2019-02-25T02:10:13.323Z,0.00
2019-02-25T02:11:13.319Z,0.00
2019-02-25T02:12:13.307Z,0.00
2019-02-25T02:13:14.465Z,0.00
2019-02-25T02:14:13.290Z,0.00
2019-02-25T02:15:13.275Z,0.00
2019-02-25T02:16:13.266Z,0.00
2019-02-25T02:17:13.258Z,0.00
2019-02-25T02:18:13.248Z,0.00
2019-02-25T02:19:13.234Z,0.00
2019-02-25T02:20:13.223Z,0.00
2019-02-25T02:21:13.210Z,0.00
2019-02-25T02:22:13.201Z,0.00
2019-02-25T02:23:13.194Z,0.00
2019-02-25T02:24:13.184Z,0.00
2019-02-25T02:25:13.189Z,0.00
2019-02-25T02:26:13.168Z,0.00
2019-02-25T02:27:13.152Z,0.00
2019-02-25T02:28:13.141Z,0.00
2019-02-25T02:29:13.131Z,0.00
2019-02-25T02:30:13.119Z,0.00
2019-02-25T02:31:13.113Z,0.00
2019-02-25T02:32:13.102Z,0.00
2019-02-25T02:33:13.087Z,0.00
2019-02-25T02:34:13.078Z,0.00
2019-02-25T02:35:13.070Z,0.00
2019-02-25T02:36:13.062Z,0.00
2019-02-25T02:37:13.051Z,0.00
2019-02-25T02:38:13.041Z,0.00
2019-02-25T02:39:13.030Z,0.00
2019-02-25T02:40:13.013Z,0.00
2019-02-25T02:41:13.012Z,0.00
2019-02-25T02:42:12.998Z,0.00
2019-02-25T02:43:12.989Z,0.00
2019-02-25T02:44:12.978Z,0.00
2019-02-25T02:45:12.969Z,0.00
2019-02-25T02:46:12.956Z,0.00
2019-02-25T02:47:12.941Z,0.00
2019-02-25T02:48:12.931Z,0.00
2019-02-25T02:49:12.927Z,0.00
2019-02-25T02:50:12.916Z,0.00
2019-02-25T02:51:12.901Z,0.00
2019-02-25T02:52:12.891Z,0.00
2019-02-25T02:53:12.882Z,0.00
2019-02-25T02:54:12.869Z,0.00
2019-02-25T02:55:12.865Z,0.00
2019-02-25T02:56:12.853Z,0.00
2019-02-25T02:57:12.846Z,0.00
2019-02-25T02:58:12.835Z,0.00
2019-02-25T02:59:12.821Z,0.00
2019-02-25T03:00:12.810Z,0.00
2019-02-25T03:01:12.795Z,0.00
2019-02-25T03:02:12.785Z,0.00
2019-02-25T03:03:12.781Z,0.00
2019-02-25T03:04:12.770Z,0.00
2019-02-25T03:05:12.755Z,0.00
2019-02-25T03:06:12.747Z,0.00
2019-02-25T03:07:12.741Z,0.00
2019-02-25T03:08:12.730Z,0.00
2019-02-25T03:09:12.722Z,0.00
2019-02-25T03:10:12.712Z,0.00
2019-02-25T03:11:12.697Z,0.00
2019-02-25T03:12:12.714Z,0.00
2019-02-25T03:13:12.684Z,0.00
2019-02-25T03:14:12.666Z,0.00
2019-02-25T03:15:12.661Z,0.00
2019-02-25T03:16:12.651Z,0.00
2019-02-25T03:17:12.638Z,0.00
2019-02-25T03:18:12.628Z,0.00
2019-02-25T03:19:12.614Z,0.00
2019-02-25T03:20:12.610Z,0.00
2019-02-25T03:21:12.595Z,0.00
2019-02-25T03:22:12.593Z,0.00
2019-02-25T03:23:12.570Z,0.00
2019-02-25T03:24:12.561Z,0.00
2019-02-25T03:25:12.556Z,0.00
2019-02-25T03:26:12.543Z,0.00
2019-02-25T03:27:12.537Z,0.00
2019-02-25T03:28:12.525Z,0.00
2019-02-25T03:29:12.513Z,0.00
2019-02-25T03:30:12.505Z,0.00
2019-02-25T03:31:12.493Z,0.00
2019-02-25T03:32:12.487Z,0.00
2019-02-25T03:33:12.495Z,0.00
2019-02-25T03:34:12.460Z,0.00
2019-02-25T03:35:12.454Z,0.00
2019-02-25T03:36:12.441Z,0.00
2019-02-25T03:37:12.426Z,0.00
2019-02-25T03:38:12.416Z,0.00
2019-02-25T03:39:12.412Z,0.00
2019-02-25T03:40:12.399Z,0.00
2019-02-25T03:41:12.387Z,0.00
2019-02-25T03:42:12.376Z,0.00
2019-02-25T03:43:12.361Z,0.00
2019-02-25T03:44:12.350Z,0.00
2019-02-25T03:45:12.340Z,0.00
2019-02-25T03:46:12.328Z,0.00
2019-02-25T03:47:12.323Z,0.00
2019-02-25T03:48:12.314Z,0.00
2019-02-25T03:49:12.302Z,0.00
2019-02-25T03:50:12.295Z,0.00
2019-02-25T03:51:12.278Z,0.00
2019-02-25T03:52:12.278Z,0.00
2019-02-25T03:53:12.261Z,0.00
2019-02-25T03:54:12.251Z,0.00
2019-02-25T03:55:12.235Z,0.00
2019-02-25T03:56:12.224Z,0.00
2019-02-25T03:57:12.210Z,0.00
2019-02-25T03:58:12.201Z,0.00
2019-02-25T03:59:12.196Z,0.00
2019-02-25T04:00:12.184Z,0.00
2019-02-25T04:01:12.173Z,0.00
2019-02-25T04:02:12.163Z,0.00
2019-02-25T04:03:12.145Z,0.00
2019-02-25T04:04:12.135Z,0.00
2019-02-25T04:05:12.127Z,0.00
2019-02-25T04:06:12.117Z,0.00
2019-02-25T04:07:12.110Z,0.00
2019-02-25T04:08:12.100Z,0.00
2019-02-25T04:09:12.086Z,0.00
2019-02-25T04:10:12.073Z,0.00
2019-02-25T04:11:12.071Z,0.00
2019-02-25T04:12:12.055Z,0.00
2019-02-25T04:13:12.042Z,0.00
2019-02-25T04:14:12.034Z,0.00
2019-02-25T04:15:12.016Z,0.00
2019-02-25T04:16:12.012Z,0.00
2019-02-25T04:17:11.995Z,0.00
2019-02-25T04:18:11.984Z,0.00
2019-02-25T04:19:11.977Z,0.00
2019-02-25T04:20:11.967Z,0.00
2019-02-25T04:21:11.959Z,0.00
2019-02-25T04:22:11.948Z,0.00
2019-02-25T04:23:11.935Z,0.00
2019-02-25T04:24:11.920Z,0.00
2019-02-25T04:25:11.915Z,0.00
2019-02-25T04:26:11.905Z,0.00
2019-02-25T04:27:11.889Z,0.00
2019-02-25T04:28:11.881Z,0.00
2019-02-25T04:29:11.867Z,0.00
2019-02-25T04:30:11.858Z,0.00
2019-02-25T04:31:11.848Z,0.00
2019-02-25T04:32:11.836Z,0.00
2019-02-25T04:33:11.827Z,0.00
2019-02-25T04:34:11.815Z,0.00
2019-02-25T04:35:11.798Z,0.00
2019-02-25T04:36:11.787Z,0.00
2019-02-25T04:37:11.780Z,0.00
2019-02-25T04:38:11.766Z,0.00
2019-02-25T04:39:11.761Z,0.00
2019-02-25T04:40:11.750Z,0.00
2019-02-25T04:41:11.735Z,0.00
2019-02-25T04:42:11.728Z,0.00
2019-02-25T04:43:11.718Z,0.00
2019-02-25T04:44:11.706Z,0.00
2019-02-25T04:45:11.697Z,0.00
2019-02-25T04:46:11.690Z,0.00
2019-02-25T04:47:11.674Z,0.00
2019-02-25T04:48:11.654Z,0.00
2019-02-25T04:49:11.647Z,0.00
2019-02-25T04:50:11.635Z,0.00
2019-02-25T04:51:11.677Z,0.00
2019-02-25T04:52:11.615Z,0.00
2019-02-25T04:53:11.607Z,0.00
2019-02-25T04:54:11.596Z,0.00
2019-02-25T04:55:11.580Z,0.00
2019-02-25T04:56:11.569Z,0.00
2019-02-25T04:57:11.567Z,0.00
2019-02-25T04:58:11.552Z,0.00
2019-02-25T04:59:11.546Z,0.00
2019-02-25T05:00:11.533Z,0.00
2019-02-25T05:01:11.511Z,0.00
2019-02-25T05:02:11.502Z,0.00
2019-02-25T05:03:11.496Z,0.00
2019-02-25T05:04:11.485Z,0.00
2019-02-25T05:05:11.474Z,0.00
2019-02-25T05:06:11.462Z,0.00
2019-02-25T05:07:11.449Z,0.00
2019-02-25T05:08:11.435Z,0.00
2019-02-25T05:09:11.427Z,0.00
2019-02-25T05:10:11.417Z,0.00
2019-02-25T05:11:11.410Z,0.00
2019-02-25T05:12:11.400Z,0.00
2019-02-25T05:13:11.387Z,0.00
2019-02-25T05:14:11.371Z,0.00
2019-02-25T05:15:11.373Z,0.00
2019-02-25T05:16:11.354Z,0.00
2019-02-25T05:17:11.350Z,0.00
2019-02-25T05:18:11.336Z,0.00
2019-02-25T05:19:11.316Z,0.00
2019-02-25T05:20:11.306Z,0.00
2019-02-25T05:21:11.297Z,0.00
2019-02-25T05:22:11.285Z,0.00
2019-02-25T05:23:11.276Z,0.00
2019-02-25T05:24:11.270Z,0.00
2019-02-25T05:25:11.265Z,0.00
2019-02-25T05:26:11.246Z,0.00
2019-02-25T05:27:11.232Z,0.00
2019-02-25T05:28:11.220Z,0.00
2019-02-25T05:29:11.215Z,0.00
2019-02-25T05:30:11.213Z,0.00
2019-02-25T05:31:11.190Z,0.00
2019-02-25T05:32:11.177Z,0.00
2019-02-25T05:33:11.171Z,0.00
2019-02-25T05:34:11.154Z,0.00
2019-02-25T05:35:11.146Z,0.00
2019-02-25T05:36:11.136Z,0.00
2019-02-25T05:37:11.128Z,0.00
2019-02-25T05:38:11.117Z,0.00
2019-02-25T05:39:11.102Z,0.00
2019-02-25T05:40:11.091Z,0.00
2019-02-25T05:41:11.077Z,0.00
2019-02-25T05:42:11.065Z,0.00
2019-02-25T05:43:11.059Z,0.00
2019-02-25T05:44:11.047Z,0.00
2019-02-25T05:45:11.037Z,0.00
2019-02-25T05:46:11.020Z,0.00
2019-02-25T05:47:11.016Z,0.00
2019-02-25T05:48:11.004Z,0.00
2019-02-25T05:49:10.999Z,0.00
2019-02-25T05:50:10.989Z,0.00
2019-02-25T05:51:10.976Z,0.00
2019-02-25T05:52:10.955Z,4.00
2019-02-25T05:53:10.946Z,4.00
2019-02-25T05:54:10.935Z,0.00
2019-02-25T05:55:10.931Z,0.00
2019-02-25T05:56:10.922Z,4.00
2019-02-25T05:57:10.904Z,4.00
2019-02-25T05:58:10.892Z,4.00
2019-02-25T05:59:10.877Z,4.00
2019-02-25T06:00:10.865Z,8.00
2019-02-25T06:01:10.859Z,8.00
2019-02-25T06:02:10.848Z,8.00
2019-02-25T06:03:10.833Z,8.00
2019-02-25T06:04:10.821Z,12.00
2019-02-25T06:05:10.812Z,12.00
2019-02-25T06:06:10.801Z,16.00
2019-02-25T06:07:10.795Z,20.00
2019-02-25T06:08:10.783Z,24.00
2019-02-25T06:09:10.772Z,28.00
2019-02-25T06:10:10.763Z,32.00
2019-02-25T06:11:10.745Z,40.00
2019-02-25T06:12:10.732Z,44.00
2019-02-25T06:13:10.718Z,52.00
2019-02-25T06:14:10.709Z,56.00
2019-02-25T06:15:10.700Z,68.00
2019-02-25T06:16:10.691Z,76.00
2019-02-25T06:17:10.674Z,88.00
2019-02-25T06:18:10.664Z,100.00
2019-02-25T06:19:10.657Z,116.00
2019-02-25T06:20:10.644Z,128.00
2019-02-25T06:21:10.636Z,148.00
2019-02-25T06:22:10.631Z,168.00
2019-02-25T06:23:10.608Z,188.00
2019-02-25T06:24:10.597Z,212.00
2019-02-25T06:25:10.586Z,232.00
2019-02-25T06:26:10.575Z,260.00
2019-02-25T06:27:10.568Z,288.00
2019-02-25T06:28:10.558Z,316.00
2019-02-25T06:29:10.544Z,344.00
2019-02-25T06:30:10.532Z,376.00
2019-02-25T06:31:10.522Z,412.00
2019-02-25T06:32:10.503Z,444.00
2019-02-25T06:33:10.505Z,480.00
2019-02-25T06:34:10.489Z,516.00
2019-02-25T06:35:10.473Z,556.00
2019-02-25T06:36:10.459Z,592.00
2019-02-25T06:37:10.450Z,632.00
2019-02-25T06:38:10.438Z,672.00
2019-02-25T06:39:10.436Z,716.00
2019-02-25T06:40:10.420Z,752.00
2019-02-25T06:41:10.407Z,796.00
2019-02-25T06:42:10.396Z,844.00
2019-02-25T06:43:10.382Z,888.00
2019-02-25T06:44:10.368Z,936.00
2019-02-25T06:45:10.359Z,984.00
2019-02-25T06:46:10.349Z,1048.00
2019-02-25T06:47:10.341Z,1120.00
2019-02-25T06:48:10.328Z,1232.00
2019-02-25T06:49:10.314Z,1512.00
2019-02-25T06:50:10.302Z,2180.00
2019-02-25T06:51:10.296Z,3128.00
2019-02-25T06:52:10.283Z,4496.00
2019-02-25T06:53:10.270Z,5540.00
2019-02-25T06:54:10.264Z,6032.00
2019-02-25T06:55:10.247Z,6264.00
2019-02-25T06:56:10.233Z,6320.00
2019-02-25T06:57:10.222Z,6552.00
2019-02-25T06:58:10.212Z,7084.00
2019-02-25T06:59:10.206Z,7800.00
2019-02-25T07:00:10.196Z,8304.00
2019-02-25T07:01:10.188Z,8644.00
2019-02-25T07:02:10.177Z,8964.00
2019-02-25T07:03:10.163Z,9252.00
2019-02-25T07:04:10.157Z,9572.00
2019-02-25T07:05:10.148Z,9872.00
2019-02-25T07:06:10.140Z,10064.00
2019-02-25T07:07:10.126Z,10120.00
2019-02-25T07:08:10.118Z,9156.00
2019-02-25T07:09:10.107Z,6864.00
2019-02-25T07:10:10.100Z,4512.00
2019-02-25T07:11:10.097Z,3356.00
2019-02-25T07:12:10.087Z,3268.00
2019-02-25T07:13:10.079Z,3704.00
2019-02-25T07:14:10.074Z,4996.00
2019-02-25T07:15:10.063Z,7952.00
2019-02-25T07:16:10.060Z,11380.00
2019-02-25T07:17:10.048Z,13792.00
2019-02-25T07:18:10.042Z,14432.00
2019-02-25T07:19:10.042Z,14720.00
2019-02-25T07:20:10.032Z,15072.00
2019-02-25T07:21:10.021Z,15328.00
2019-02-25T07:22:10.015Z,15680.00
2019-02-25T07:23:10.012Z,16288.00
2019-02-25T07:24:10.009Z,16192.00
2019-02-25T07:25:09.998Z,16032.00
2019-02-25T07:26:09.991Z,16064.00
2019-02-25T07:27:09.981Z,16192.00
2019-02-25T07:28:09.974Z,16032.00
2019-02-25T07:29:09.970Z,16096.00
2019-02-25T07:30:09.964Z,16288.00
2019-02-25T07:31:09.965Z,16512.00
2019-02-25T07:32:09.959Z,17024.00
2019-02-25T07:33:09.958Z,17536.00
2019-02-25T07:34:09.956Z,17088.00
2019-02-25T07:35:09.952Z,17056.00
2019-02-25T07:36:09.946Z,16832.00
2019-02-25T07:37:09.946Z,16384.00
2019-02-25T07:38:09.958Z,18144.00
2019-02-25T07:39:09.936Z,18912.00
2019-02-25T07:40:09.932Z,19456.00
2019-02-25T07:41:09.927Z,19680.00
2019-02-25T07:42:09.929Z,19872.00
2019-02-25T07:43:09.928Z,19968.00
2019-02-25T07:44:09.928Z,20384.00
2019-02-25T07:45:09.928Z,20480.00
2019-02-25T07:46:09.926Z,20608.00
2019-02-25T07:47:09.922Z,21120.00
2019-02-25T07:48:09.920Z,21440.00
2019-02-25T07:49:09.917Z,21632.00
2019-02-25T07:50:09.918Z,21888.00
2019-02-25T07:51:09.921Z,22112.00
2019-02-25T07:52:09.921Z,22240.00
2019-02-25T07:53:09.916Z,22368.00
2019-02-25T07:54:09.915Z,22656.00
2019-02-25T07:55:09.923Z,22848.00
2019-02-25T07:56:09.922Z,22912.00
2019-02-25T07:57:09.923Z,23168.00
2019-02-25T07:58:09.926Z,23232.00
2019-02-25T07:59:09.927Z,23392.00
2019-02-25T08:00:09.927Z,23584.00
2019-02-25T08:01:09.926Z,23712.00
2019-02-25T08:02:09.929Z,23872.00
2019-02-25T08:03:09.934Z,24032.00
2019-02-25T08:04:09.936Z,24192.00
2019-02-25T08:05:09.937Z,24288.00
2019-02-25T08:06:11.907Z,24416.00
2019-02-25T08:07:09.937Z,24576.00
2019-02-25T08:08:09.938Z,24672.00
2019-02-25T08:09:09.947Z,24864.00
2019-02-25T08:10:09.950Z,24992.00
2019-02-25T08:11:09.949Z,25120.00
2019-02-25T08:12:09.956Z,25216.00
2019-02-25T08:13:09.958Z,25344.00
2019-02-25T08:14:09.961Z,25472.00
2019-02-25T08:15:09.972Z,25632.00
2019-02-25T08:16:09.973Z,25760.00
2019-02-25T08:17:09.977Z,25920.00
2019-02-25T08:18:09.984Z,26048.00
2019-02-25T08:19:09.981Z,26208.00
2019-02-25T08:20:09.989Z,26304.00
2019-02-25T08:21:09.987Z,26432.00
2019-02-25T08:22:09.993Z,26528.00
2019-02-25T08:23:10.003Z,26624.00
2019-02-25T08:24:10.009Z,26816.00
2019-02-25T08:25:10.007Z,26880.00
2019-02-25T08:26:10.014Z,27040.00
2019-02-25T08:27:10.024Z,27136.00
2019-02-25T08:28:10.030Z,27328.00
2019-02-25T08:29:10.037Z,27328.00
2019-02-25T08:30:10.042Z,27296.00
2019-02-25T08:31:10.043Z,27360.00
2019-02-25T08:32:10.048Z,27168.00
2019-02-25T08:33:10.055Z,27200.00
2019-02-25T08:34:18.347Z,14112.00
2019-02-25T08:35:10.070Z,13948.00
2019-02-25T08:36:10.076Z,13880.00
2019-02-25T08:37:10.086Z,13844.00
2019-02-25T08:38:10.086Z,13916.00
2019-02-25T08:39:10.088Z,13952.00
2019-02-25T08:40:11.617Z,13956.00
2019-02-25T08:41:10.150Z,14112.00
2019-02-25T08:42:10.111Z,14208.00
2019-02-25T08:43:10.113Z,14336.00
2019-02-25T08:44:10.117Z,14432.00
2019-02-25T08:45:10.126Z,14432.00
2019-02-25T08:46:10.135Z,14496.00
2019-02-25T08:47:10.144Z,14528.00
2019-02-25T08:48:10.151Z,14656.00
2019-02-25T08:49:10.150Z,14752.00
2019-02-25T08:50:10.156Z,14848.00
2019-02-25T08:51:10.169Z,15136.00
2019-02-25T08:52:10.175Z,15520.00
2019-02-25T08:53:10.184Z,16064.00
2019-02-25T08:54:10.192Z,16992.00
2019-02-25T08:55:10.194Z,18304.00
2019-02-25T08:56:10.200Z,19456.00
2019-02-25T08:57:10.214Z,20160.00
2019-02-25T08:58:10.218Z,20608.00
2019-02-25T08:59:10.224Z,20928.00
2019-02-25T09:00:10.229Z,20928.00
2019-02-25T09:01:10.233Z,21152.00
2019-02-25T09:02:10.244Z,21536.00
2019-02-25T09:03:10.254Z,21856.00
2019-02-25T09:04:10.262Z,21984.00
2019-02-25T09:05:10.269Z,22272.00
2019-02-25T09:06:10.332Z,22432.00
2019-02-25T09:07:10.286Z,22528.00
2019-02-25T09:08:10.291Z,22304.00
2019-02-25T09:09:10.299Z,22336.00
2019-02-25T09:10:10.307Z,22592.00
2019-02-25T09:11:14.166Z,22816.00
2019-02-25T09:12:10.327Z,23200.00
2019-02-25T09:13:10.331Z,23968.00
2019-02-25T09:14:10.343Z,23360.00
2019-02-25T09:15:10.352Z,22976.00
2019-02-25T09:16:10.363Z,22880.00
2019-02-25T09:17:10.368Z,23456.00
2019-02-25T09:18:10.377Z,23392.00
2019-02-25T09:19:10.381Z,23456.00
2019-02-25T09:20:10.389Z,23520.00
2019-02-25T09:21:10.399Z,23488.00
2019-02-25T09:22:10.409Z,23008.00
2019-02-25T09:23:10.421Z,22880.00
2019-02-25T09:24:10.431Z,22528.00
2019-02-25T09:25:10.444Z,22336.00
2019-02-25T09:26:11.902Z,22496.00
2019-02-25T09:27:10.457Z,22624.00
2019-02-25T09:28:10.467Z,22368.00
2019-02-25T09:29:10.479Z,22112.00
2019-02-25T09:30:10.490Z,22784.00
2019-02-25T09:31:10.495Z,23680.00
2019-02-25T09:32:10.509Z,23872.00
2019-02-25T09:33:10.513Z,24320.00
2019-02-25T09:34:11.810Z,24416.00
2019-02-25T09:35:10.536Z,24352.00
2019-02-25T09:36:10.546Z,24608.00
2019-02-25T09:37:10.557Z,24672.00
2019-02-25T09:38:10.566Z,24352.00
2019-02-25T09:39:10.574Z,23872.00
2019-02-25T09:40:10.583Z,22368.00
2019-02-25T09:41:10.596Z,20000.00
2019-02-25T09:42:10.610Z,18080.00
2019-02-25T09:43:10.625Z,17440.00
2019-02-25T09:44:10.634Z,17568.00
2019-02-25T09:45:10.640Z,17600.00
2019-02-25T09:46:10.651Z,17664.00
2019-02-25T09:47:10.667Z,17760.00
2019-02-25T09:48:10.679Z,17760.00
2019-02-25T09:49:10.686Z,17824.00
2019-02-25T09:50:10.698Z,17920.00
2019-02-25T09:51:11.375Z,17952.00
2019-02-25T09:52:10.719Z,18016.00
2019-02-25T09:53:10.731Z,18080.00
2019-02-25T09:54:10.741Z,17952.00
2019-02-25T09:55:10.758Z,18048.00
2019-02-25T09:56:10.773Z,18240.00
2019-02-25T09:57:10.777Z,18304.00
2019-02-25T09:58:10.791Z,18400.00
2019-02-25T09:59:10.797Z,18528.00
2019-02-25T10:00:10.808Z,18848.00
2019-02-25T10:01:10.825Z,19168.00
2019-02-25T10:02:10.835Z,19360.00
2019-02-25T10:03:10.843Z,19712.00
2019-02-25T10:04:10.854Z,20224.00
2019-02-25T10:05:10.870Z,20608.00
2019-02-25T10:06:12.872Z,21344.00
2019-02-25T10:07:10.899Z,21856.00
2019-02-25T10:08:10.910Z,21760.00
2019-02-25T10:09:10.919Z,20896.00
2019-02-25T10:10:10.932Z,20128.00
2019-02-25T10:11:10.940Z,19488.00
2019-02-25T10:12:10.952Z,19104.00
2019-02-25T10:13:10.960Z,18976.00
2019-02-25T10:14:10.971Z,18944.00
2019-02-25T10:15:10.990Z,18976.00
2019-02-25T10:16:11.000Z,18944.00
2019-02-25T10:17:11.007Z,19040.00
2019-02-25T10:18:11.024Z,19072.00
2019-02-25T10:19:11.037Z,19040.00
2019-02-25T10:20:11.051Z,19136.00
2019-02-25T10:21:11.064Z,19264.00
2019-02-25T10:22:11.074Z,19296.00
2019-02-25T10:23:11.084Z,19392.00
2019-02-25T10:24:11.097Z,19552.00
2019-02-25T10:25:11.105Z,19744.00
2019-02-25T10:26:11.116Z,20128.00
2019-02-25T10:27:11.132Z,20864.00
2019-02-25T10:28:11.143Z,21056.00
2019-02-25T10:29:11.155Z,20672.00
2019-02-25T10:30:11.164Z,20448.00
2019-02-25T10:31:13.043Z,20384.00
2019-02-25T10:32:11.178Z,20896.00
2019-02-25T10:33:11.203Z,22112.00
2019-02-25T10:34:11.207Z,22752.00
2019-02-25T10:35:11.214Z,21344.00
2019-02-25T10:36:11.223Z,20192.00
2019-02-25T10:37:13.041Z,20352.00
2019-02-25T10:38:11.247Z,23840.00
2019-02-25T10:39:12.996Z,25120.00
2019-02-25T10:40:12.914Z,21440.00
2019-02-25T10:41:11.286Z,20480.00
2019-02-25T10:42:11.295Z,21024.00
2019-02-25T10:43:11.303Z,28608.00
2019-02-25T10:44:11.314Z,38304.00
2019-02-25T10:45:13.340Z,39872.00
2019-02-25T10:46:13.481Z,40032.00
2019-02-25T10:47:13.132Z,41376.00
2019-02-25T10:48:11.359Z,36192.00
2019-02-25T10:49:11.813Z,23552.00
2019-02-25T10:50:11.378Z,19136.00
2019-02-25T10:51:13.182Z,18752.00
2019-02-25T10:52:12.884Z,18848.00
2019-02-25T10:53:13.588Z,18944.00
2019-02-25T10:54:11.425Z,18880.00
2019-02-25T10:55:11.430Z,18688.00
2019-02-25T10:56:11.441Z,18784.00
2019-02-25T10:57:11.448Z,18688.00
2019-02-25T10:58:11.462Z,18688.00
2019-02-25T10:59:11.476Z,18624.00
2019-02-25T11:00:12.041Z,18368.00
2019-02-25T11:01:13.390Z,17888.00
2019-02-25T11:02:13.191Z,17504.00
2019-02-25T11:03:12.825Z,17312.00
2019-02-25T11:04:11.529Z,18112.00
2019-02-25T11:05:11.542Z,17952.00
2019-02-25T11:06:11.552Z,17696.00
2019-02-25T11:07:11.571Z,17664.00
2019-02-25T11:08:13.681Z,16512.00
2019-02-25T11:09:13.402Z,16480.00
2019-02-25T11:10:12.069Z,17408.00
2019-02-25T11:11:11.601Z,17824.00
2019-02-25T11:12:11.611Z,17664.00
2019-02-25T11:13:11.621Z,17632.00
2019-02-25T11:14:11.631Z,17536.00
2019-02-25T11:15:13.350Z,17280.00
2019-02-25T11:16:12.403Z,13508.00
2019-02-25T11:17:11.659Z,17088.00
2019-02-25T11:18:11.670Z,17056.00
2019-02-25T11:19:11.685Z,16896.00
2019-02-25T11:20:11.694Z,16704.00
2019-02-25T11:21:11.698Z,16512.00
2019-02-25T11:22:13.736Z,16288.00
2019-02-25T11:23:12.853Z,16256.00
2019-02-25T11:24:11.731Z,16224.00
2019-02-25T11:25:11.739Z,16032.00
2019-02-25T11:26:11.751Z,16128.00
2019-02-25T11:27:11.757Z,16224.00
2019-02-25T11:28:23.578Z,16352.00
2019-02-25T11:29:13.716Z,16416.00
2019-02-25T11:30:12.550Z,16480.00
2019-02-25T11:31:11.797Z,16480.00
2019-02-25T11:32:11.806Z,16448.00
2019-02-25T11:33:11.816Z,16352.00
2019-02-25T11:34:11.827Z,16192.00
2019-02-25T11:35:13.015Z,16224.00
2019-02-25T11:36:12.798Z,16384.00
2019-02-25T11:37:11.852Z,16736.00
2019-02-25T11:38:11.859Z,16960.00
2019-02-25T11:39:11.863Z,17216.00
2019-02-25T11:40:11.868Z,15556.00
2019-02-25T11:41:11.874Z,9468.00
2019-02-25T11:42:13.512Z,5472.00
2019-02-25T11:43:13.257Z,4888.00
2019-02-25T11:44:11.901Z,4744.00
2019-02-25T11:45:11.906Z,4652.00
2019-02-25T11:46:11.917Z,4612.00
2019-02-25T11:47:11.915Z,4592.00
2019-02-25T11:48:11.921Z,4580.00
2019-02-25T11:49:11.933Z,4552.00
2019-02-25T11:50:11.935Z,4536.00
2019-02-25T11:51:11.945Z,4508.00
2019-02-25T11:52:11.949Z,4476.00
2019-02-25T11:53:11.950Z,4440.00
2019-02-25T11:54:11.956Z,4420.00
2019-02-25T11:55:11.962Z,4420.00
2019-02-25T11:56:11.967Z,4420.00
2019-02-25T11:57:11.969Z,4408.00
2019-02-25T11:58:11.971Z,4376.00
2019-02-25T11:59:11.971Z,4332.00
2019-02-25T12:00:11.973Z,4300.00
2019-02-25T12:01:11.978Z,4228.00
2019-02-25T12:02:11.982Z,4204.00
2019-02-25T12:03:11.988Z,4168.00
2019-02-25T12:04:12.000Z,4112.00
2019-02-25T12:05:11.991Z,4088.00
2019-02-25T12:06:11.992Z,4048.00
2019-02-25T12:07:11.990Z,4036.00
2019-02-25T12:08:11.992Z,4000.00
2019-02-25T12:09:11.996Z,3968.00
2019-02-25T12:10:11.997Z,3968.00
2019-02-25T12:11:11.994Z,3960.00
2019-02-25T12:12:11.995Z,3932.00
2019-02-25T12:13:11.999Z,3908.00
2019-02-25T12:14:12.000Z,3888.00
2019-02-25T12:15:12.005Z,3868.00
2019-02-25T12:16:12.006Z,3840.00
2019-02-25T12:17:12.007Z,3828.00
2019-02-25T12:18:12.007Z,3792.00
2019-02-25T12:19:18.009Z,3752.00
2019-02-25T12:20:12.002Z,3748.00
2019-02-25T12:21:12.000Z,3724.00
2019-02-25T12:22:12.002Z,3708.00
2019-02-25T12:23:12.006Z,3688.00
2019-02-25T12:24:12.007Z,3664.00
2019-02-25T12:25:12.001Z,3648.00
2019-02-25T12:26:12.001Z,3628.00
2019-02-25T12:27:12.009Z,3608.00
2019-02-25T12:28:12.004Z,3592.00
2019-02-25T12:29:12.016Z,3568.00
2019-02-25T12:30:12.007Z,3544.00
2019-02-25T12:31:12.002Z,3520.00
2019-02-25T12:32:12.002Z,3500.00